Terminal Aerodrome Forecast
Issued by NWS

Home | Current Version | Previous Version | Text Only | Print | Product List | Glossary On
Versions: 1 2 3 4 5 6 7 8 9 10 11 12 13 14 15 16 17 18 19 20 21 22 23 24 25 26 27 28 29 30 31 32 33 34 35 36
000
FTUS44 KLZK 220704 AAA
TAFADF
TAF AMD
KADF 220704Z 2207/2306 20005KT 1SM BR SCT025 OVC060
      TEMPO 2207/2210 1/4SM FG VV002
     FM221000 23005KT 6SM BR VCSH BKN010 OVC050
      TEMPO 2210/2213 5SM -TSRA BR SCT005 OVC025CB
     FM221300 23010KT P6SM VCTS BKN030CB OVC050
     FM221600 25008KT P6SM VCSH SCT030 BKN050 OVC100=

USA.gov is the U.S. government's official web portal to all federal, state and local government web resources and services.